createdAt,value
2022-12-29T09:53:02.651Z,58.20
2022-12-29T09:55:14.008Z,57.66
2022-12-29T09:57:21.729Z,57.21
2022-12-29T09:59:29.105Z,57.00
2022-12-29T10:01:36.136Z,56.95
2022-12-29T10:03:48.520Z,56.55
2022-12-29T10:05:57.070Z,56.69
2022-12-29T10:08:17.460Z,56.41
2022-12-29T10:10:31.350Z,56.52
2022-12-29T10:12:54.104Z,56.61
2022-12-29T10:15:06.419Z,56.34
2022-12-29T10:17:22.608Z,56.18
2022-12-29T10:19:49.010Z,56.15
2022-12-29T10:22:06.335Z,56.45
2022-12-29T10:24:14.280Z,56.25
2022-12-29T10:26:20.606Z,56.51
2022-12-29T10:28:26.092Z,56.45
2022-12-29T10:30:30.111Z,56.16
2022-12-29T10:32:39.731Z,56.13
2022-12-29T10:34:48.022Z,56.40
2022-12-29T10:36:53.089Z,56.27
2022-12-29T10:39:04.326Z,56.45
2022-12-29T10:41:18.096Z,56.10
2022-12-29T10:43:27.022Z,56.33
2022-12-29T10:45:33.611Z,56.26
2022-12-29T10:47:41.489Z,56.30
2022-12-29T10:49:47.139Z,56.26
2022-12-29T10:51:52.940Z,55.81
2022-12-29T10:54:02.255Z,55.73
2022-12-29T10:56:14.745Z,55.92
2022-12-29T10:58:18.530Z,55.96
2022-12-29T11:00:23.455Z,55.80
2022-12-29T11:02:50.336Z,56.02
2022-12-29T11:05:00.397Z,55.50
2022-12-29T11:07:04.212Z,55.80
2022-12-29T11:09:15.007Z,55.32
2022-12-29T11:11:27.585Z,55.40
2022-12-29T11:13:36.692Z,55.59
2022-12-29T11:15:43.063Z,55.29
2022-12-29T11:17:48.360Z,55.20
2022-12-29T11:19:51.045Z,55.39
2022-12-29T11:21:54.857Z,55.02
2022-12-29T11:24:00.403Z,55.29
2022-12-29T11:26:23.912Z,55.19
2022-12-29T11:28:31.501Z,55.28
2022-12-29T11:30:34.538Z,54.92
2022-12-29T11:32:37.305Z,54.95
2022-12-29T11:34:40.019Z,55.24
2022-12-29T11:36:42.752Z,55.15
2022-12-29T11:38:50.977Z,54.83
2022-12-29T11:40:53.881Z,54.88
2022-12-29T11:43:00.776Z,54.94
2022-12-29T11:45:11.038Z,54.63
2022-12-29T11:47:24.978Z,54.91
2022-12-29T11:49:28.694Z,54.58
2022-12-29T11:51:36.316Z,54.55
2022-12-29T11:53:44.408Z,54.44
2022-12-29T11:55:54.899Z,54.70
2022-12-29T11:58:02.875Z,54.46
2022-12-29T12:00:17.846Z,54.42
2022-12-29T12:02:44.511Z,54.35
2022-12-29T12:04:47.446Z,54.18
2022-12-29T12:06:57.839Z,54.31
2022-12-29T12:09:08.010Z,54.20
2022-12-29T12:11:16.065Z,54.50
2022-12-29T12:13:27.623Z,54.34
2022-12-29T12:15:43.469Z,54.43
2022-12-29T12:17:53.782Z,54.28
2022-12-29T12:20:04.041Z,54.11
2022-12-29T12:22:15.935Z,54.36
2022-12-29T12:24:41.452Z,54.43
2022-12-29T12:26:57.152Z,54.23
2022-12-29T12:29:06.931Z,54.18
2022-12-29T12:31:21.042Z,54.07
2022-12-29T12:33:29.909Z,54.48
2022-12-29T12:35:46.332Z,54.23
2022-12-29T12:38:10.232Z,54.25
2022-12-29T12:41:00.101Z,54.34
2022-12-29T12:43:20.142Z,54.64
2022-12-29T12:45:42.090Z,54.98
2022-12-29T12:48:00.351Z,54.93
2022-12-29T12:50:35.089Z,55.09
2022-12-29T12:52:48.801Z,55.20
2022-12-29T12:55:10.072Z,55.33
2022-12-29T12:57:21.213Z,55.50
2022-12-29T12:59:36.532Z,55.49
2022-12-29T13:01:52.669Z,55.57
2022-12-29T13:04:09.524Z,55.66
2022-12-29T13:06:25.025Z,56.05
2022-12-29T13:08:41.740Z,56.23
2022-12-29T13:10:53.543Z,56.26
2022-12-29T13:13:04.976Z,56.16
2022-12-29T13:15:20.280Z,56.36
2022-12-29T13:17:32.280Z,56.36
2022-12-29T13:19:43.147Z,56.22
2022-12-29T13:22:06.220Z,56.30
2022-12-29T13:24:20.074Z,56.77
2022-12-29T13:26:30.581Z,56.63
2022-12-29T13:28:40.506Z,56.37
2022-12-29T13:30:50.515Z,56.73
2022-12-29T13:33:05.029Z,56.89
2022-12-29T13:35:21.417Z,56.64
2022-12-29T13:37:29.872Z,56.76
2022-12-29T13:39:36.121Z,56.83
2022-12-29T13:41:45.338Z,56.89
2022-12-29T13:43:51.910Z,56.79
2022-12-29T13:46:01.615Z,56.80
2022-12-29T13:48:13.187Z,56.72
2022-12-29T13:50:20.346Z,56.94
2022-12-29T13:52:29.396Z,56.91
2022-12-29T13:54:41.854Z,56.92
2022-12-29T13:56:53.056Z,56.71
2022-12-29T13:59:00.645Z,56.71
2022-12-29T14:01:10.965Z,57.10
2022-12-29T14:03:30.934Z,57.06
2022-12-29T14:05:34.587Z,56.71
2022-12-29T14:07:40.390Z,57.04
2022-12-29T14:09:48.337Z,56.81
2022-12-29T14:11:51.088Z,57.07
2022-12-29T14:13:54.045Z,56.67
2022-12-29T14:15:59.277Z,56.86
2022-12-29T14:18:12.529Z,56.86
2022-12-29T14:20:24.989Z,56.99
2022-12-29T14:22:33.272Z,56.94
2022-12-29T14:24:47.167Z,57.17
2022-12-29T14:26:49.883Z,57.13
2022-12-29T14:28:52.632Z,57.16
2022-12-29T14:30:57.535Z,56.86
2022-12-29T14:33:05.932Z,57.08
2022-12-29T14:35:44.765Z,57.07
2022-12-29T14:37:47.558Z,57.13
2022-12-29T14:39:50.292Z,57.15
2022-12-29T14:42:02.024Z,57.12
2022-12-29T14:44:21.453Z,57.48
2022-12-29T14:46:25.173Z,57.19
2022-12-29T14:48:41.435Z,57.27
2022-12-29T14:50:46.593Z,57.29
2022-12-29T14:52:58.478Z,57.53
2022-12-29T14:55:32.130Z,57.43
2022-12-29T14:57:38.880Z,57.75
2022-12-29T14:59:41.882Z,57.69
2022-12-29T15:01:49.452Z,57.48
2022-12-29T15:03:55.490Z,57.56
2022-12-29T15:06:09.702Z,57.68
2022-12-29T15:08:14.489Z,57.58
2022-12-29T15:10:23.820Z,57.86
2022-12-29T15:12:35.728Z,57.91
2022-12-29T15:14:41.551Z,58.08
2022-12-29T15:16:44.252Z,58.09
2022-12-29T15:18:46.947Z,58.13
2022-12-29T15:20:53.683Z,58.25
2022-12-29T15:23:00.496Z,58.21
2022-12-29T15:25:03.246Z,58.35
2022-12-29T15:27:07.234Z,58.25
2022-12-29T15:29:31.732Z,58.17
2022-12-29T15:31:34.706Z,58.21
2022-12-29T15:33:41.615Z,58.21
2022-12-29T15:35:44.509Z,58.61
2022-12-29T15:37:47.162Z,58.57
2022-12-29T15:39:53.396Z,58.55
2022-12-29T15:42:01.549Z,58.50
2022-12-29T15:44:15.718Z,58.54
2022-12-29T15:46:19.107Z,58.59
2022-12-29T15:48:24.794Z,58.68
2022-12-29T15:50:30.452Z,58.89
2022-12-29T15:52:35.336Z,58.87
2022-12-29T15:54:39.046Z,58.77
2022-12-29T15:56:44.027Z,58.81
2022-12-29T15:58:49.463Z,58.58
2022-12-29T16:00:54.948Z,58.59
2022-12-29T16:03:00.785Z,58.74
2022-12-29T16:05:19.013Z,58.67
2022-12-29T16:07:28.232Z,59.00
2022-12-29T16:09:33.108Z,59.01
2022-12-29T16:11:39.250Z,59.02
2022-12-29T16:13:43.529Z,58.70
2022-12-29T16:15:48.008Z,58.81
2022-12-29T16:17:56.611Z,58.83
2022-12-29T16:20:01.323Z,58.70
2022-12-29T16:22:10.876Z,58.80
2022-12-29T16:24:17.631Z,59.06
2022-12-29T16:26:22.044Z,59.08
2022-12-29T16:28:26.900Z,59.25
2022-12-29T16:30:34.530Z,59.04
2022-12-29T16:32:46.943Z,59.03
2022-12-29T16:34:49.708Z,59.18
2022-12-29T16:36:58.076Z,59.11
2022-12-29T16:39:22.607Z,58.92
2022-12-29T16:41:32.512Z,59.29
2022-12-29T16:43:42.667Z,59.16
2022-12-29T16:46:22.925Z,59.34
2022-12-29T16:48:27.642Z,59.31
2022-12-29T16:50:30.483Z,59.28
2022-12-29T16:52:36.605Z,59.28
2022-12-29T16:54:40.993Z,59.08
2022-12-29T16:56:46.571Z,59.03
2022-12-29T16:58:50.860Z,58.93
2022-12-29T17:00:57.722Z,59.08
2022-12-29T17:03:02.777Z,59.25
2022-12-29T17:05:06.319Z,59.47
2022-12-29T17:07:17.866Z,59.26
2022-12-29T17:09:23.288Z,59.21
2022-12-29T17:11:52.496Z,59.38
2022-12-29T17:13:58.573Z,59.30
2022-12-29T17:16:01.259Z,59.62
2022-12-29T17:18:10.190Z,59.43
2022-12-29T17:20:18.394Z,59.60
2022-12-29T17:22:25.082Z,59.50
2022-12-29T17:24:28.179Z,59.67
2022-12-29T17:26:30.839Z,59.32
2022-12-29T17:28:34.080Z,59.75
2022-12-29T17:30:37.150Z,59.71
2022-12-29T17:32:41.000Z,60.08
2022-12-29T17:34:45.053Z,59.78
2022-12-29T17:36:47.805Z,60.03
2022-12-29T17:38:50.461Z,60.04
2022-12-29T17:40:53.338Z,59.87
2022-12-29T17:42:58.247Z,60.10
2022-12-29T17:45:02.320Z,59.83
2022-12-29T17:47:04.995Z,60.18
2022-12-29T17:49:12.233Z,60.03
2022-12-29T17:51:16.697Z,60.18
2022-12-29T17:53:22.352Z,60.42
2022-12-29T17:55:31.233Z,60.04
2022-12-29T17:57:37.620Z,60.01
2022-12-29T17:59:40.357Z,60.15
2022-12-29T18:01:45.534Z,60.20
2022-12-29T18:03:49.560Z,60.47
2022-12-29T18:05:52.408Z,60.15
2022-12-29T18:07:58.809Z,60.50
2022-12-29T18:10:01.519Z,60.42
2022-12-29T18:12:04.861Z,60.32
2022-12-29T18:14:07.845Z,60.33
2022-12-29T18:16:12.391Z,60.35
2022-12-29T18:18:16.855Z,60.58
2022-12-29T18:20:19.463Z,60.72
2022-12-29T18:22:23.848Z,60.58
2022-12-29T18:24:28.386Z,60.53
2022-12-29T18:26:35.447Z,60.49
2022-12-29T18:28:38.363Z,60.60
2022-12-29T18:30:41.241Z,60.61
2022-12-29T18:32:44.001Z,60.56
2022-12-29T18:34:47.033Z,60.72
2022-12-29T18:36:49.687Z,60.99
2022-12-29T18:38:54.529Z,60.75
2022-12-29T18:40:59.473Z,61.08
2022-12-29T18:43:02.681Z,61.02
2022-12-29T18:45:16.530Z,60.84
2022-12-29T18:47:19.335Z,60.83
2022-12-29T18:49:22.109Z,61.13
2022-12-29T18:51:26.486Z,61.17
2022-12-29T18:53:29.131Z,61.35
2022-12-29T18:55:32.011Z,61.06
2022-12-29T18:57:36.286Z,61.42
2022-12-29T18:59:39.024Z,61.40
2022-12-29T19:01:41.915Z,61.32
2022-12-29T19:03:44.904Z,61.54
2022-12-29T19:05:48.977Z,61.18
2022-12-29T19:07:52.950Z,61.33
2022-12-29T19:09:55.999Z,61.45
2022-12-29T19:11:58.683Z,61.32
2022-12-29T19:14:02.849Z,61.42
2022-12-29T19:16:14.188Z,61.49
2022-12-29T19:20:44.235Z,61.48
2022-12-29T19:22:46.976Z,61.77
2022-12-29T19:24:52.547Z,61.76
2022-12-29T19:26:57.909Z,61.43
2022-12-29T19:29:02.113Z,61.74
2022-12-29T19:31:04.912Z,61.94
2022-12-29T19:33:10.095Z,61.69
2022-12-29T19:35:13.330Z,61.90
2022-12-29T19:37:16.113Z,61.75
2022-12-29T19:39:18.924Z,61.75
2022-12-29T19:41:21.680Z,61.86
2022-12-29T19:43:24.821Z,61.88
2022-12-29T19:45:28.906Z,62.19
2022-12-29T19:47:32.312Z,62.28
2022-12-29T19:49:35.592Z,62.18
2022-12-29T19:51:38.323Z,61.94
2022-12-29T19:53:42.417Z,62.14
2022-12-29T19:55:45.796Z,61.85
2022-12-29T19:57:49.021Z,62.10
2022-12-29T19:59:52.069Z,61.86
2022-12-29T20:01:56.296Z,62.11
2022-12-29T20:03:59.362Z,62.14
2022-12-29T20:06:02.276Z,62.31
2022-12-29T20:08:05.154Z,62.37
2022-12-29T20:10:09.286Z,62.13
2022-12-29T20:12:12.624Z,62.18
2022-12-29T20:14:15.350Z,62.52
2022-12-29T20:16:20.042Z,62.47
2022-12-29T20:18:28.973Z,62.37
2022-12-29T20:20:34.934Z,62.43
2022-12-29T20:22:37.783Z,62.66
2022-12-29T20:24:46.751Z,62.51
2022-12-29T20:26:54.607Z,62.58
2022-12-29T20:28:58.572Z,62.43
2022-12-29T20:31:03.372Z,62.49
2022-12-29T20:33:08.680Z,62.42
2022-12-29T20:35:14.226Z,62.54
2022-12-29T20:37:16.968Z,62.72
2022-12-29T20:39:21.358Z,62.52
2022-12-29T20:41:24.202Z,62.45
2022-12-29T20:43:26.896Z,62.67
2022-12-29T20:45:29.804Z,62.64
2022-12-29T20:47:32.655Z,62.72
2022-12-29T20:49:36.198Z,62.84
2022-12-29T20:54:06.003Z,62.77
2022-12-29T20:56:11.738Z,62.78
2022-12-29T20:58:23.900Z,62.83
2022-12-29T21:00:30.208Z,62.95
2022-12-29T21:02:33.247Z,63.18
2022-12-29T21:05:12.818Z,62.86
2022-12-29T21:07:00.394Z,63.03
2022-12-29T21:09:03.183Z,62.90
2022-12-29T21:11:06.621Z,63.00
2022-12-29T21:13:09.351Z,63.07
2022-12-29T21:15:14.305Z,63.36
2022-12-29T21:17:17.035Z,63.19
2022-12-29T21:19:19.636Z,63.21
2022-12-29T21:21:24.081Z,63.38
2022-12-29T21:23:29.219Z,63.38
2022-12-29T21:25:37.106Z,63.09
2022-12-29T21:27:42.896Z,63.02
2022-12-29T21:29:45.909Z,63.47
2022-12-29T21:31:48.569Z,63.24
2022-12-29T21:33:51.901Z,63.39
2022-12-29T21:35:54.594Z,63.15
2022-12-29T21:37:57.605Z,63.49
2022-12-29T21:40:01.613Z,63.48
2022-12-29T21:42:04.301Z,63.17
2022-12-29T21:44:24.309Z,63.15
2022-12-29T21:46:26.949Z,63.53
2022-12-29T21:48:30.201Z,63.22
2022-12-29T21:50:33.061Z,63.62
2022-12-29T21:52:34.724Z,63.62
2022-12-29T21:54:54.886Z,63.49
2022-12-29T21:56:59.354Z,63.48
2022-12-29T21:59:19.573Z,63.49
2022-12-29T22:01:40.042Z,63.43
2022-12-29T22:04:00.503Z,63.37
2022-12-29T22:06:20.785Z,63.40
2022-12-29T22:08:41.196Z,63.51
2022-12-29T22:11:03.598Z,63.34
2022-12-29T22:13:07.606Z,63.57
2022-12-29T22:15:11.165Z,63.60
2022-12-29T22:17:14.410Z,63.37
2022-12-29T22:19:17.379Z,63.65
2022-12-29T22:21:20.330Z,63.40
2022-12-29T22:23:23.124Z,63.79
2022-12-29T22:25:26.031Z,63.42
2022-12-29T22:27:28.667Z,63.46
2022-12-29T22:29:32.695Z,63.70
2022-12-29T22:31:35.491Z,63.61
2022-12-29T22:33:38.161Z,63.54
2022-12-29T22:35:40.817Z,63.72
2022-12-29T22:37:44.289Z,63.58
2022-12-29T22:39:46.938Z,63.43
2022-12-29T22:41:49.680Z,63.81
2022-12-29T22:43:52.592Z,63.76
2022-12-29T22:45:56.762Z,63.87
2022-12-29T22:47:59.404Z,63.79
2022-12-29T22:50:20.788Z,64.01
2022-12-29T22:52:42.037Z,64.06
2022-12-29T22:55:06.978Z,63.94
2022-12-29T22:57:18.860Z,64.06
2022-12-29T22:59:40.184Z,64.39
2022-12-29T23:01:44.565Z,64.11
2022-12-29T23:03:51.298Z,64.11
2022-12-29T23:05:58.647Z,64.42
2022-12-29T23:08:01.563Z,64.18
